sensor_id;sensor_type;location;lat;lon;timestamp;P1;durP1;ratioP1;P2;durP2;ratioP2
57299;SDS011;43148;50.966;18.198;2023-06-22T00:02:52;4.30;;;4.10;;
57299;SDS011;43148;50.966;18.198;2023-06-22T00:12:34;3.00;;;2.90;;
57299;SDS011;43148;50.966;18.198;2023-06-22T00:22:19;6.30;;;6.00;;
57299;SDS011;43148;50.966;18.198;2023-06-22T00:32:11;5.80;;;5.50;;
57299;SDS011;43148;50.966;18.198;2023-06-22T00:41:53;8.90;;;7.90;;
57299;SDS011;43148;50.966;18.198;2023-06-22T00:51:35;5.10;;;4.80;;
57299;SDS011;43148;50.966;18.198;2023-06-22T01:01:22;5.80;;;5.50;;
57299;SDS011;43148;50.966;18.198;2023-06-22T01:11:41;12.90;;;12.00;;
57299;SDS011;43148;50.966;18.198;2023-06-22T01:21:42;15.20;;;10.50;;
57299;SDS011;43148;50.966;18.198;2023-06-22T01:31:47;10.70;;;10.20;;
57299;SDS011;43148;50.966;18.198;2023-06-22T01:41:33;11.40;;;10.80;;
57299;SDS011;43148;50.966;18.198;2023-06-22T01:51:17;11.10;;;10.40;;
57299;SDS011;43148;50.966;18.198;2023-06-22T02:01:07;13.00;;;12.30;;
57299;SDS011;43148;50.966;18.198;2023-06-22T02:10:55;14.20;;;13.30;;
57299;SDS011;43148;50.966;18.198;2023-06-22T02:20:40;12.50;;;11.60;;
57299;SDS011;43148;50.966;18.198;2023-06-22T02:30:23;13.60;;;12.60;;
57299;SDS011;43148;50.966;18.198;2023-06-22T02:40:08;13.80;;;12.80;;
57299;SDS011;43148;50.966;18.198;2023-06-22T02:49:51;15.70;;;14.50;;
57299;SDS011;43148;50.966;18.198;2023-06-22T03:06:57;15.40;;;14.20;;
57299;SDS011;43148;50.966;18.198;2023-06-22T03:16:44;16.30;;;15.00;;
57299;SDS011;43148;50.966;18.198;2023-06-22T03:26:30;16.30;;;15.20;;
57299;SDS011;43148;50.966;18.198;2023-06-22T03:36:13;17.60;;;16.40;;
57299;SDS011;43148;50.966;18.198;2023-06-22T03:45:57;18.40;;;16.50;;
57299;SDS011;43148;50.966;18.198;2023-06-22T03:55:48;15.90;;;15.00;;
57299;SDS011;43148;50.966;18.198;2023-06-22T04:05:32;9.00;;;8.40;;
57299;SDS011;43148;50.966;18.198;2023-06-22T04:15:15;11.20;;;10.50;;
57299;SDS011;43148;50.966;18.198;2023-06-22T04:24:58;18.10;;;16.70;;
57299;SDS011;43148;50.966;18.198;2023-06-22T04:34:43;11.90;;;11.20;;
57299;SDS011;43148;50.966;18.198;2023-06-22T04:44:26;19.70;;;18.50;;
57299;SDS011;43148;50.966;18.198;2023-06-22T04:54:11;20.10;;;18.60;;
57299;SDS011;43148;50.966;18.198;2023-06-22T05:03:56;15.70;;;14.80;;
57299;SDS011;43148;50.966;18.198;2023-06-22T05:13:51;14.70;;;13.80;;
57299;SDS011;43148;50.966;18.198;2023-06-22T05:23:34;14.30;;;13.40;;
57299;SDS011;43148;50.966;18.198;2023-06-22T05:33:15;9.10;;;8.50;;
57299;SDS011;43148;50.966;18.198;2023-06-22T05:42:58;7.90;;;7.50;;
57299;SDS011;43148;50.966;18.198;2023-06-22T05:52:42;7.60;;;7.20;;
57299;SDS011;43148;50.966;18.198;2023-06-22T06:02:24;7.10;;;6.80;;
57299;SDS011;43148;50.966;18.198;2023-06-22T06:12:09;2.80;;;2.70;;
57299;SDS011;43148;50.966;18.198;2023-06-22T06:21:52;1.90;;;1.80;;
57299;SDS011;43148;50.966;18.198;2023-06-22T06:31:33;3.50;;;3.40;;
57299;SDS011;43148;50.966;18.198;2023-06-22T06:41:16;5.90;;;5.60;;
57299;SDS011;43148;50.966;18.198;2023-06-22T06:51:01;4.90;;;4.60;;
57299;SDS011;43148;50.966;18.198;2023-06-22T07:00:48;5.30;;;4.90;;
57299;SDS011;43148;50.966;18.198;2023-06-22T07:10:30;4.30;;;4.00;;
57299;SDS011;43148;50.966;18.198;2023-06-22T07:20:13;6.60;;;6.30;;
57299;SDS011;43148;50.966;18.198;2023-06-22T07:30:05;6.40;;;5.90;;
57299;SDS011;43148;50.966;18.198;2023-06-22T07:39:47;5.50;;;5.20;;
57299;SDS011;43148;50.966;18.198;2023-06-22T07:49:34;5.90;;;5.60;;
57299;SDS011;43148;50.966;18.198;2023-06-22T07:59:18;4.40;;;4.10;;
57299;SDS011;43148;50.966;18.198;2023-06-22T08:09:00;3.90;;;3.40;;
57299;SDS011;43148;50.966;18.198;2023-06-22T08:18:43;4.30;;;4.10;;
57299;SDS011;43148;50.966;18.198;2023-06-22T08:28:25;0.20;;;0.20;;
57299;SDS011;43148;50.966;18.198;2023-06-22T08:38:08;0.00;;;0.00;;
57299;SDS011;43148;50.966;18.198;2023-06-22T08:47:50;0.00;;;0.00;;
57299;SDS011;43148;50.966;18.198;2023-06-22T08:57:34;0.10;;;0.10;;
57299;SDS011;43148;50.966;18.198;2023-06-22T09:07:21;0.20;;;0.20;;
57299;SDS011;43148;50.966;18.198;2023-06-22T09:17:05;0.40;;;0.40;;
57299;SDS011;43148;50.966;18.198;2023-06-22T09:26:47;0.60;;;0.60;;
57299;SDS011;43148;50.966;18.198;2023-06-22T09:36:30;1.20;;;1.20;;
57299;SDS011;43148;50.966;18.198;2023-06-22T09:46:15;1.20;;;1.20;;
57299;SDS011;43148;50.966;18.198;2023-06-22T09:55:57;0.80;;;0.80;;
57299;SDS011;43148;50.966;18.198;2023-06-22T10:05:39;1.50;;;1.50;;
57299;SDS011;43148;50.966;18.198;2023-06-22T10:15:28;4.10;;;4.00;;
57299;SDS011;43148;50.966;18.198;2023-06-22T10:25:12;7.80;;;7.60;;
57299;SDS011;43148;50.966;18.198;2023-06-22T10:35:00;3.30;;;3.20;;
57299;SDS011;43148;50.966;18.198;2023-06-22T10:44:42;6.80;;;6.60;;
57299;SDS011;43148;50.966;18.198;2023-06-22T10:54:29;14.70;;;14.30;;
57299;SDS011;43148;50.966;18.198;2023-06-22T11:04:12;24.00;;;23.30;;
57299;SDS011;43148;50.966;18.198;2023-06-22T11:13:55;20.00;;;19.40;;
57299;SDS011;43148;50.966;18.198;2023-06-22T11:23:37;36.80;;;35.40;;
57299;SDS011;43148;50.966;18.198;2023-06-22T11:33:19;45.10;;;43.30;;
57299;SDS011;43148;50.966;18.198;2023-06-22T11:43:01;41.30;;;39.70;;
57299;SDS011;43148;50.966;18.198;2023-06-22T11:47:52;63.00;;;60.10;;
57299;SDS011;43148;50.966;18.198;2023-06-22T11:57:36;48.80;;;46.80;;
57299;SDS011;43148;50.966;18.198;2023-06-22T12:07:23;44.50;;;42.70;;
57299;SDS011;43148;50.966;18.198;2023-06-22T12:17:06;53.20;;;50.90;;
57299;SDS011;43148;50.966;18.198;2023-06-22T12:26:48;45.90;;;44.10;;
57299;SDS011;43148;50.966;18.198;2023-06-22T12:36:42;47.40;;;45.50;;
57299;SDS011;43148;50.966;18.198;2023-06-22T12:53:47;31.50;;;30.40;;
57299;SDS011;43148;50.966;18.198;2023-06-22T13:03:29;18.90;;;18.30;;
57299;SDS011;43148;50.966;18.198;2023-06-22T13:13:11;11.20;;;10.90;;
57299;SDS011;43148;50.966;18.198;2023-06-22T13:22:54;2.10;;;2.10;;
57299;SDS011;43148;50.966;18.198;2023-06-22T13:32:40;0.20;;;0.20;;
57299;SDS011;43148;50.966;18.198;2023-06-22T13:42:28;0.00;;;0.00;;
57299;SDS011;43148;50.966;18.198;2023-06-22T13:52:10;0.00;;;0.00;;
57299;SDS011;43148;50.966;18.198;2023-06-22T14:01:55;0.00;;;0.00;;
57299;SDS011;43148;50.966;18.198;2023-06-22T14:11:40;0.00;;;0.00;;
57299;SDS011;43148;50.966;18.198;2023-06-22T14:21:22;0.00;;;0.00;;
57299;SDS011;43148;50.966;18.198;2023-06-22T14:31:15;0.00;;;0.00;;
57299;SDS011;43148;50.966;18.198;2023-06-22T14:41:08;0.00;;;0.00;;
57299;SDS011;43148;50.966;18.198;2023-06-22T14:50:49;0.00;;;0.00;;
57299;SDS011;43148;50.966;18.198;2023-06-22T15:00:31;0.00;;;0.00;;
57299;SDS011;43148;50.966;18.198;2023-06-22T15:10:16;0.00;;;0.00;;
57299;SDS011;43148;50.966;18.198;2023-06-22T15:19:59;0.00;;;0.00;;
57299;SDS011;43148;50.966;18.198;2023-06-22T15:29:44;0.00;;;0.00;;
57299;SDS011;43148;50.966;18.198;2023-06-22T15:39:26;0.00;;;0.00;;
57299;SDS011;43148;50.966;18.198;2023-06-22T15:49:15;0.00;;;0.00;;
57299;SDS011;43148;50.966;18.198;2023-06-22T15:58:57;0.00;;;0.00;;
57299;SDS011;43148;50.966;18.198;2023-06-22T16:08:43;0.00;;;0.00;;
57299;SDS011;43148;50.966;18.198;2023-06-22T16:18:25;0.00;;;0.00;;
57299;SDS011;43148;50.966;18.198;2023-06-22T16:28:10;0.10;;;0.10;;
57299;SDS011;43148;50.966;18.198;2023-06-22T16:37:58;0.60;;;0.10;;
57299;SDS011;43148;50.966;18.198;2023-06-22T16:47:42;0.20;;;0.20;;
57299;SDS011;43148;50.966;18.198;2023-06-22T16:57:28;0.30;;;0.30;;
57299;SDS011;43148;50.966;18.198;2023-06-22T17:07:11;0.50;;;0.50;;
57299;SDS011;43148;50.966;18.198;2023-06-22T17:16:56;1.30;;;1.20;;
57299;SDS011;43148;50.966;18.198;2023-06-22T17:26:45;0.60;;;0.60;;
57299;SDS011;43148;50.966;18.198;2023-06-22T17:46:36;1.10;;;1.10;;
57299;SDS011;43148;50.966;18.198;2023-06-22T17:56:29;1.30;;;1.20;;
57299;SDS011;43148;50.966;18.198;2023-06-22T18:06:24;1.30;;;1.20;;
57299;SDS011;43148;50.966;18.198;2023-06-22T18:16:11;1.40;;;1.30;;
57299;SDS011;43148;50.966;18.198;2023-06-22T18:25:53;3.40;;;1.40;;
57299;SDS011;43148;50.966;18.198;2023-06-22T18:35:36;2.20;;;2.00;;
57299;SDS011;43148;50.966;18.198;2023-06-22T18:45:27;2.70;;;2.60;;
57299;SDS011;43148;50.966;18.198;2023-06-22T18:55:51;0.60;;;0.60;;
57299;SDS011;43148;50.966;18.198;2023-06-22T19:05:58;2.40;;;2.20;;
57299;SDS011;43148;50.966;18.198;2023-06-22T19:15:42;3.70;;;3.40;;
57299;SDS011;43148;50.966;18.198;2023-06-22T19:25:30;4.30;;;4.00;;
57299;SDS011;43148;50.966;18.198;2023-06-22T19:35:17;8.20;;;4.60;;
57299;SDS011;43148;50.966;18.198;2023-06-22T19:45:03;2.10;;;2.00;;
57299;SDS011;43148;50.966;18.198;2023-06-22T19:54:59;11.90;;;10.80;;
57299;SDS011;43148;50.966;18.198;2023-06-22T20:04:43;8.30;;;5.10;;
57299;SDS011;43148;50.966;18.198;2023-06-22T20:14:29;3.40;;;3.20;;
57299;SDS011;43148;50.966;18.198;2023-06-22T20:24:28;5.40;;;3.10;;
57299;SDS011;43148;50.966;18.198;2023-06-22T20:34:18;2.70;;;2.50;;
57299;SDS011;43148;50.966;18.198;2023-06-22T20:44:03;3.70;;;3.30;;
57299;SDS011;43148;50.966;18.198;2023-06-22T20:53:48;3.00;;;2.80;;
57299;SDS011;43148;50.966;18.198;2023-06-22T21:03:32;2.50;;;2.40;;
57299;SDS011;43148;50.966;18.198;2023-06-22T21:13:16;2.20;;;2.10;;
57299;SDS011;43148;50.966;18.198;2023-06-22T21:22:58;2.60;;;2.50;;
57299;SDS011;43148;50.966;18.198;2023-06-22T21:32:41;1.60;;;1.50;;
57299;SDS011;43148;50.966;18.198;2023-06-22T21:42:26;2.60;;;2.50;;
57299;SDS011;43148;50.966;18.198;2023-06-22T21:52:09;3.40;;;3.10;;
57299;SDS011;43148;50.966;18.198;2023-06-22T22:01:53;3.70;;;3.40;;
57299;SDS011;43148;50.966;18.198;2023-06-22T22:11:42;3.30;;;3.10;;
57299;SDS011;43148;50.966;18.198;2023-06-22T22:21:25;4.10;;;3.80;;
57299;SDS011;43148;50.966;18.198;2023-06-22T22:31:09;3.20;;;3.00;;
57299;SDS011;43148;50.966;18.198;2023-06-22T22:40:57;5.70;;;5.30;;
57299;SDS011;43148;50.966;18.198;2023-06-22T22:50:39;3.50;;;3.30;;
57299;SDS011;43148;50.966;18.198;2023-06-22T23:00:20;2.30;;;2.20;;
57299;SDS011;43148;50.966;18.198;2023-06-22T23:10:05;1.90;;;1.80;;
57299;SDS011;43148;50.966;18.198;2023-06-22T23:19:49;3.20;;;3.00;;
57299;SDS011;43148;50.966;18.198;2023-06-22T23:29:33;4.50;;;4.20;;
57299;SDS011;43148;50.966;18.198;2023-06-22T23:39:15;4.90;;;4.50;;
57299;SDS011;43148;50.966;18.198;2023-06-22T23:49:00;3.80;;;3.50;;
57299;SDS011;43148;50.966;18.198;2023-06-22T23:58:50;6.00;;;5.60;;
